Terminal Aerodrome Forecast
Issued by NWS Wilmington, OH

Current Version | Previous Version | Graphics & Text | Print | Product List | Glossary On
Versions: 1 2 3 4 5 6 7 8 9 10 11 12 13 14 15 16 17 18 19 20 21 22 23
000
FTUS41 KILN 241800 AAA
TAFILN
TAF AMD
KILN 241826Z 2418/2518 23010KT P6SM SCT018 BKN060
     FM241930 26010KT P6SM OVC018
     FM242130 22006KT P6SM SCT025 SCT050
     FM251000 19005KT P6SM BKN080
     FM251300 15007KT P6SM SCT040 OVC070=

USA.gov is the U.S. government's official web portal to all federal, state and local government web resources and services.